Aérodrome :
LOGIN :

S'inscrire | Disclaimer

   EN    FR    IT 

 










Légende :    VFR   VFR Marginal   IFR   IFR Intensif   IFR Très Intensif
Visi : 
Plafond : 
>= 8 km
>= 3000ft
5 à 8 km
1000 à 3000 ft
1500m à 5 km
500 à 1000 ft
800 à 1500m
200 à 500 ft
< 800m
< 200 ft
Symboles :   Orages  Brouillard  Fortes neiges  Fortes précipitations  Vent > 20 kt
SIGMETs :   Divers  Orages  Givrage  Turbulence  Onde Orograph.  Cendres Volcan.







- Altitude de l'aérodrome : 545 ft
- Code IATA : PZY


LZPP - Piešťany

DERNIER METAR :
  • 231400Z 30014KT 260V330 CAVOK 18/07 Q1018

METARs EXPIRÉS :
  • 231330Z 31013KT CAVOK 18/06 Q1018
  • 231300Z 29011KT 260V330 9999 FEW046 BKN090 17/07 Q1019
  • 231230Z 32012KT 9999 FEW046 BKN080 17/07 Q1019
  • 231200Z 29014KT 260V320 9999 FEW046 BKN080 18/07 Q1019
  • 231130Z 28014KT 9999 FEW043 BKN080 16/06 Q1019

TAF TAF LZPP
Valide du 23 à 12h jusqu'au 23 à 21h UTC


231100Z 2312/2321 31010KT 9999 SCT045 BKN080
PROB40
TEMPO 2312/2315 32015KT -SHRA FEW034TCU BKN040
BECMG 2316/2318 CAVOK
Pas de NOTAMs connus pour ce terrain.



MET'MAP, la Météo Aéronautique d'un coup d'oeil ! - Copyright ORBIFLY Décembre 2007 - Disclaimer

ORBIFLY MET'MAP TEAM :

Programmation & Développement : Alexandra Zaïnal
Conception & Développement : Baudouin d'Aumeries
Co-Programmation & Développement : Marc-Olivier Méhu
Soutien technique & logistique : Manuel Goepfert

Contact : metmap@orbifly.com




SOURCES & CREDITS :

   NOAA